sensor_id;sensor_type;location;lat;lon;timestamp;pressure;altitude;pressure_sealevel;temperature;humidity
11053;BME280;55230;42.602;23.470;2023-02-26T00:01:55;92319.69;;;11.80;50.66
11053;BME280;55230;42.602;23.470;2023-02-26T00:04:25;92424.66;;;12.40;51.31
11053;BME280;55230;42.602;23.470;2023-02-26T00:06:52;92416.13;;;12.58;50.78
11053;BME280;55230;42.602;23.470;2023-02-26T00:09:19;92361.91;;;12.20;51.22
11053;BME280;55230;42.602;23.470;2023-02-26T00:11:48;92388.53;;;12.43;50.73
11053;BME280;55230;42.602;23.470;2023-02-26T00:14:15;92425.97;;;12.61;51.06
11053;BME280;55230;42.602;23.470;2023-02-26T00:16:45;92309.81;;;11.77;51.41
11053;BME280;55230;42.602;23.470;2023-02-26T00:19:13;92428.91;;;12.52;51.42
11053;BME280;55230;42.602;23.470;2023-02-26T00:21:40;92428.13;;;12.46;52.04
11053;BME280;55230;42.602;23.470;2023-02-26T00:24:07;92339.03;;;11.79;51.20
11053;BME280;55230;42.602;23.470;2023-02-26T00:26:34;92418.84;;;12.58;50.20
11053;BME280;55230;42.602;23.470;2023-02-26T00:29:03;92413.72;;;12.66;50.19
11053;BME280;55230;42.602;23.470;2023-02-26T00:31:31;92419.34;;;12.57;50.35
11053;BME280;55230;42.602;23.470;2023-02-26T00:33:58;92371.75;;;12.23;51.72
11053;BME280;55230;42.602;23.470;2023-02-26T00:36:33;92360.84;;;12.12;50.75
11053;BME280;55230;42.602;23.470;2023-02-26T00:39:08;92365.13;;;12.29;49.95
11053;BME280;55230;42.602;23.470;2023-02-26T00:41:41;92367.31;;;12.20;50.35
11053;BME280;55230;42.602;23.470;2023-02-26T00:44:09;92317.94;;;11.77;51.47
11053;BME280;55230;42.602;23.470;2023-02-26T00:46:41;92372.94;;;12.16;49.52
11053;BME280;55230;42.602;23.470;2023-02-26T00:49:18;92379.97;;;12.50;48.95
11053;BME280;55230;42.602;23.470;2023-02-26T00:51:50;92384.94;;;12.57;49.15
11053;BME280;55230;42.602;23.470;2023-02-26T00:54:20;92382.16;;;12.46;50.29
11053;BME280;55230;42.602;23.470;2023-02-26T00:56:48;92372.06;;;12.41;48.52
11053;BME280;55230;42.602;23.470;2023-02-26T00:59:17;92289.16;;;11.69;48.12
11053;BME280;55230;42.602;23.470;2023-02-26T01:01:44;92370.34;;;12.38;48.20
11053;BME280;55230;42.602;23.470;2023-02-26T01:04:12;92364.75;;;12.58;47.10
11053;BME280;55230;42.602;23.470;2023-02-26T01:06:45;92363.56;;;12.65;46.83
11053;BME280;55230;42.602;23.470;2023-02-26T01:09:17;92321.69;;;12.38;47.18
11053;BME280;55230;42.602;23.470;2023-02-26T01:11:47;92349.47;;;12.44;49.79
11053;BME280;55230;42.602;23.470;2023-02-26T01:14:16;92108.59;;;10.49;46.87
11053;BME280;55230;42.602;23.470;2023-02-26T01:16:49;92356.38;;;12.56;47.38
11053;BME280;55230;42.602;23.470;2023-02-26T01:19:25;92338.16;;;12.40;48.93
11053;BME280;55230;42.602;23.470;2023-02-26T01:21:58;92349.19;;;12.37;48.66
11053;BME280;55230;42.602;23.470;2023-02-26T01:24:29;92293.44;;;11.86;48.01
11053;BME280;55230;42.602;23.470;2023-02-26T01:26:56;92352.88;;;12.39;48.55
11053;BME280;55230;42.602;23.470;2023-02-26T01:29:25;92292.78;;;12.02;50.11
11053;BME280;55230;42.602;23.470;2023-02-26T01:31:56;92326.13;;;11.57;50.75
11053;BME280;55230;42.602;23.470;2023-02-26T01:34:28;92336.00;;;12.02;50.08
11053;BME280;55230;42.602;23.470;2023-02-26T01:37:01;92123.41;;;10.65;49.67
11053;BME280;55230;42.602;23.470;2023-02-26T01:39:33;92313.00;;;11.76;50.85
11053;BME280;55230;42.602;23.470;2023-02-26T01:42:10;92217.25;;;11.29;51.00
11053;BME280;55230;42.602;23.470;2023-02-26T01:44:45;92050.25;;;10.10;50.82
11053;BME280;55230;42.602;23.470;2023-02-26T01:47:20;92231.22;;;11.27;48.71
11053;BME280;55230;42.602;23.470;2023-02-26T01:49:49;92082.00;;;10.63;48.10
11053;BME280;55230;42.602;23.470;2023-02-26T01:55:28;92226.50;;;11.59;48.67
11053;BME280;55230;42.602;23.470;2023-02-26T01:57:56;92265.00;;;11.91;49.92
11053;BME280;55230;42.602;23.470;2023-02-26T02:00:26;92297.47;;;11.65;51.93
11053;BME280;55230;42.602;23.470;2023-02-26T02:02:53;92270.88;;;11.52;52.09
11053;BME280;55230;42.602;23.470;2023-02-26T02:05:24;92286.59;;;11.54;51.67
11053;BME280;55230;42.602;23.470;2023-02-26T02:07:54;92262.97;;;11.43;51.25
11053;BME280;55230;42.602;23.470;2023-02-26T02:10:21;92250.16;;;11.33;51.75
11053;BME280;55230;42.602;23.470;2023-02-26T02:12:54;92269.13;;;11.49;51.33
11053;BME280;55230;42.602;23.470;2023-02-26T02:15:32;92254.66;;;11.47;51.23
11053;BME280;55230;42.602;23.470;2023-02-26T02:18:08;92217.63;;;11.11;51.14
11053;BME280;55230;42.602;23.470;2023-02-26T02:23:56;92229.66;;;11.15;51.93
11053;BME280;55230;42.602;23.470;2023-02-26T02:26:55;92261.19;;;11.35;51.62
11053;BME280;55230;42.602;23.470;2023-02-26T02:32:29;92123.84;;;10.01;50.24
11053;BME280;55230;42.602;23.470;2023-02-26T02:35:06;92224.84;;;10.94;48.66
11053;BME280;55230;42.602;23.470;2023-02-26T02:37:37;92184.66;;;10.96;48.58
11053;BME280;55230;42.602;23.470;2023-02-26T02:40:10;92223.72;;;11.48;45.63
11053;BME280;55230;42.602;23.470;2023-02-26T02:42:43;92254.38;;;11.82;44.48
11053;BME280;55230;42.602;23.470;2023-02-26T02:45:16;92271.63;;;11.95;43.99
11053;BME280;55230;42.602;23.470;2023-02-26T02:47:49;92264.97;;;11.85;44.38
11053;BME280;55230;42.602;23.470;2023-02-26T02:50:20;92283.41;;;11.92;45.02
11053;BME280;55230;42.602;23.470;2023-02-26T02:52:54;92278.00;;;11.92;44.78
11053;BME280;55230;42.602;23.470;2023-02-26T02:55:26;91827.78;;;8.77;44.34
11053;BME280;55230;42.602;23.470;2023-02-26T02:57:58;92292.94;;;11.88;45.15
11053;BME280;55230;42.602;23.470;2023-02-26T03:00:27;92212.47;;;11.55;42.83
11053;BME280;55230;42.602;23.470;2023-02-26T03:03:01;92295.00;;;12.04;43.45
11053;BME280;55230;42.602;23.470;2023-02-26T03:05:30;92273.19;;;12.18;43.73
11053;BME280;55230;42.602;23.470;2023-02-26T03:08:00;92198.28;;;11.60;42.75
11053;BME280;55230;42.602;23.470;2023-02-26T03:10:29;92289.16;;;12.22;42.83
11053;BME280;55230;42.602;23.470;2023-02-26T03:12:56;92266.09;;;12.21;42.59
11053;BME280;55230;42.602;23.470;2023-02-26T03:15:32;92018.53;;;10.67;41.63
11053;BME280;55230;42.602;23.470;2023-02-26T03:18:10;92207.53;;;12.01;41.58
11053;BME280;55230;42.602;23.470;2023-02-26T03:20:43;92075.53;;;10.91;42.11
11053;BME280;55230;42.602;23.470;2023-02-26T03:23:18;92273.41;;;12.09;42.63
11053;BME280;55230;42.602;23.470;2023-02-26T03:25:49;92230.31;;;11.78;43.77
11053;BME280;55230;42.602;23.470;2023-02-26T03:28:21;92272.09;;;11.88;44.39
11053;BME280;55230;42.602;23.470;2023-02-26T03:30:54;92257.06;;;11.76;42.91
11053;BME280;55230;42.602;23.470;2023-02-26T03:33:30;91826.66;;;8.89;43.42
11053;BME280;55230;42.602;23.470;2023-02-26T03:36:06;92267.69;;;11.96;42.38
11053;BME280;55230;42.602;23.470;2023-02-26T03:38:40;92261.84;;;12.03;42.16
11053;BME280;55230;42.602;23.470;2023-02-26T03:41:11;92260.38;;;12.02;42.76
11053;BME280;55230;42.602;23.470;2023-02-26T03:43:44;92264.72;;;11.89;43.16
11053;BME280;55230;42.602;23.470;2023-02-26T03:46:15;91964.81;;;9.79;43.74
11053;BME280;55230;42.602;23.470;2023-02-26T03:48:47;92265.69;;;11.80;43.74
11053;BME280;55230;42.602;23.470;2023-02-26T03:51:17;92169.06;;;11.11;44.68
11053;BME280;55230;42.602;23.470;2023-02-26T03:53:54;92261.69;;;11.39;45.74
11053;BME280;55230;42.602;23.470;2023-02-26T03:56:25;92188.41;;;10.73;46.13
11053;BME280;55230;42.602;23.470;2023-02-26T03:58:53;92224.97;;;10.79;46.61
11053;BME280;55230;42.602;23.470;2023-02-26T04:01:27;92259.44;;;10.95;45.67
11053;BME280;55230;42.602;23.470;2023-02-26T04:03:58;92261.53;;;11.48;43.39
11053;BME280;55230;42.602;23.470;2023-02-26T04:06:27;92186.44;;;11.04;43.67
11053;BME280;55230;42.602;23.470;2023-02-26T04:08:55;92232.06;;;11.44;43.63
11053;BME280;55230;42.602;23.470;2023-02-26T04:11:22;92241.81;;;11.73;43.79
11053;BME280;55230;42.602;23.470;2023-02-26T04:13:50;92238.88;;;11.71;44.02
11053;BME280;55230;42.602;23.470;2023-02-26T04:16:17;92167.34;;;11.08;44.57
11053;BME280;55230;42.602;23.470;2023-02-26T04:18:44;92128.88;;;10.14;46.49
11053;BME280;55230;42.602;23.470;2023-02-26T04:21:13;92209.66;;;11.33;44.71
11053;BME280;55230;42.602;23.470;2023-02-26T04:23:40;92207.03;;;11.44;44.04
11053;BME280;55230;42.602;23.470;2023-02-26T04:26:07;92217.63;;;11.53;43.90
11053;BME280;55230;42.602;23.470;2023-02-26T04:28:34;92242.53;;;11.68;42.99
11053;BME280;55230;42.602;23.470;2023-02-26T04:31:02;92217.09;;;11.91;41.77
11053;BME280;55230;42.602;23.470;2023-02-26T04:33:29;92223.28;;;12.03;41.69
11053;BME280;55230;42.602;23.470;2023-02-26T04:35:56;92115.22;;;11.33;41.95
11053;BME280;55230;42.602;23.470;2023-02-26T04:38:24;92067.22;;;10.95;42.69
11053;BME280;55230;42.602;23.470;2023-02-26T04:40:51;92122.59;;;11.38;41.66
11053;BME280;55230;42.602;23.470;2023-02-26T04:43:18;91868.47;;;9.52;41.92
11053;BME280;55230;42.602;23.470;2023-02-26T04:45:44;92213.94;;;11.98;42.73
11053;BME280;55230;42.602;23.470;2023-02-26T04:48:12;92236.50;;;11.95;42.22
11053;BME280;55230;42.602;23.470;2023-02-26T04:50:39;92058.63;;;10.96;41.76
11053;BME280;55230;42.602;23.470;2023-02-26T04:53:06;92200.41;;;11.87;41.59
11053;BME280;55230;42.602;23.470;2023-02-26T04:55:34;92182.50;;;12.06;40.88
11053;BME280;55230;42.602;23.470;2023-02-26T04:58:02;92192.09;;;12.07;40.50
11053;BME280;55230;42.602;23.470;2023-02-26T05:00:29;92139.47;;;11.86;39.85
11053;BME280;55230;42.602;23.470;2023-02-26T05:02:55;92183.53;;;12.25;40.75
11053;BME280;55230;42.602;23.470;2023-02-26T05:05:23;92200.22;;;12.18;41.34
11053;BME280;55230;42.602;23.470;2023-02-26T05:07:50;92065.72;;;11.47;40.68
11053;BME280;55230;42.602;23.470;2023-02-26T05:10:20;92178.63;;;12.29;39.37
11053;BME280;55230;42.602;23.470;2023-02-26T05:12:48;92176.47;;;12.55;38.87
11053;BME280;55230;42.602;23.470;2023-02-26T05:15:15;92173.53;;;12.64;38.33
11053;BME280;55230;42.602;23.470;2023-02-26T05:17:41;92177.97;;;12.78;38.49
11053;BME280;55230;42.602;23.470;2023-02-26T05:20:09;92173.50;;;12.53;38.60
11053;BME280;55230;42.602;23.470;2023-02-26T05:22:36;92139.84;;;12.60;37.76
11053;BME280;55230;42.602;23.470;2023-02-26T05:25:04;92194.69;;;12.94;37.96
11053;BME280;55230;42.602;23.470;2023-02-26T05:27:31;92225.44;;;13.02;38.08
11053;BME280;55230;42.602;23.470;2023-02-26T05:29:59;91899.53;;;10.96;38.16
11053;BME280;55230;42.602;23.470;2023-02-26T05:32:26;92200.59;;;13.09;37.82
11053;BME280;55230;42.602;23.470;2023-02-26T05:34:53;91979.78;;;11.29;37.60
11053;BME280;55230;42.602;23.470;2023-02-26T05:37:20;92197.88;;;13.20;37.85
11053;BME280;55230;42.602;23.470;2023-02-26T05:39:46;91937.66;;;11.59;36.88
11053;BME280;55230;42.602;23.470;2023-02-26T05:42:13;92125.28;;;12.96;37.17
11053;BME280;55230;42.602;23.470;2023-02-26T05:44:40;92150.41;;;13.08;37.45
11053;BME280;55230;42.602;23.470;2023-02-26T05:47:08;92205.50;;;13.27;37.68
11053;BME280;55230;42.602;23.470;2023-02-26T05:49:35;92208.91;;;13.44;37.12
11053;BME280;55230;42.602;23.470;2023-02-26T05:52:03;92150.88;;;13.23;37.05
11053;BME280;55230;42.602;23.470;2023-02-26T05:54:30;92178.88;;;13.53;37.15
11053;BME280;55230;42.602;23.470;2023-02-26T05:56:56;92153.31;;;13.32;36.66
11053;BME280;55230;42.602;23.470;2023-02-26T05:59:23;92181.78;;;13.66;35.99
11053;BME280;55230;42.602;23.470;2023-02-26T06:01:50;92136.31;;;13.37;36.45
11053;BME280;55230;42.602;23.470;2023-02-26T06:04:18;91778.16;;;10.69;37.21
11053;BME280;55230;42.602;23.470;2023-02-26T06:06:45;92049.09;;;12.75;36.59
11053;BME280;55230;42.602;23.470;2023-02-26T06:09:12;92165.50;;;13.71;36.98
11053;BME280;55230;42.602;23.470;2023-02-26T06:11:39;92159.00;;;13.23;36.69
11053;BME280;55230;42.602;23.470;2023-02-26T06:14:05;92111.53;;;13.11;36.89
11053;BME280;55230;42.602;23.470;2023-02-26T06:16:32;92206.38;;;13.73;35.85
11053;BME280;55230;42.602;23.470;2023-02-26T06:19:00;92192.78;;;13.90;36.32
11053;BME280;55230;42.602;23.470;2023-02-26T06:21:28;92024.97;;;12.94;35.90
11053;BME280;55230;42.602;23.470;2023-02-26T06:23:55;92200.53;;;14.16;35.02
11053;BME280;55230;42.602;23.470;2023-02-26T06:26:22;92005.31;;;12.82;35.78
11053;BME280;55230;42.602;23.470;2023-02-26T06:28:49;92198.28;;;14.25;35.61
11053;BME280;55230;42.602;23.470;2023-02-26T06:31:15;92082.41;;;13.39;35.51
11053;BME280;55230;42.602;23.470;2023-02-26T06:33:42;92128.13;;;13.59;35.23
11053;BME280;55230;42.602;23.470;2023-02-26T06:36:09;92291.88;;;14.48;35.13
11053;BME280;55230;42.602;23.470;2023-02-26T06:38:37;92226.00;;;14.53;34.89
11053;BME280;55230;42.602;23.470;2023-02-26T06:41:04;92155.91;;;14.22;34.98
11053;BME280;55230;42.602;23.470;2023-02-26T06:43:30;92030.25;;;13.33;34.38
11053;BME280;55230;42.602;23.470;2023-02-26T06:45:58;91847.50;;;12.17;34.33
11053;BME280;55230;42.602;23.470;2023-02-26T06:48:30;92174.03;;;14.49;34.59
11053;BME280;55230;42.602;23.470;2023-02-26T06:50:57;92231.41;;;14.99;33.98
11053;BME280;55230;42.602;23.470;2023-02-26T06:53:24;92228.34;;;15.08;33.79
11053;BME280;55230;42.602;23.470;2023-02-26T06:55:52;92228.09;;;15.06;34.24
11053;BME280;55230;42.602;23.470;2023-02-26T06:58:19;92172.38;;;14.70;33.55
11053;BME280;55230;42.602;23.470;2023-02-26T07:00:46;92202.50;;;15.02;33.48
11053;BME280;55230;42.602;23.470;2023-02-26T07:03:14;92206.91;;;15.35;33.21
11053;BME280;55230;42.602;23.470;2023-02-26T07:05:42;92215.66;;;15.52;33.69
11053;BME280;55230;42.602;23.470;2023-02-26T07:08:09;92205.72;;;15.60;33.05
11053;BME280;55230;42.602;23.470;2023-02-26T07:10:37;91965.69;;;14.18;32.71
11053;BME280;55230;42.602;23.470;2023-02-26T07:13:05;92144.66;;;15.37;31.88
11053;BME280;55230;42.602;23.470;2023-02-26T07:15:32;92008.25;;;14.29;31.87
11053;BME280;55230;42.602;23.470;2023-02-26T07:17:59;92175.03;;;15.65;32.67
11053;BME280;55230;42.602;23.470;2023-02-26T07:20:26;92191.66;;;15.80;32.60
11053;BME280;55230;42.602;23.470;2023-02-26T07:22:54;91977.75;;;14.47;31.80
11053;BME280;55230;42.602;23.470;2023-02-26T07:25:21;92065.13;;;15.18;31.16
11053;BME280;55230;42.602;23.470;2023-02-26T07:27:48;91928.34;;;14.59;31.24
11053;BME280;55230;42.602;23.470;2023-02-26T07:30:17;92178.91;;;16.55;30.45
11053;BME280;55230;42.602;23.470;2023-02-26T07:32:44;92185.44;;;16.96;29.58
11053;BME280;55230;42.602;23.470;2023-02-26T07:35:11;92139.16;;;16.28;30.37
11053;BME280;55230;42.602;23.470;2023-02-26T07:37:37;92063.69;;;15.78;29.63
11053;BME280;55230;42.602;23.470;2023-02-26T07:40:05;92147.03;;;16.68;30.23
11053;BME280;55230;42.602;23.470;2023-02-26T07:42:32;92152.38;;;17.05;28.70
11053;BME280;55230;42.602;23.470;2023-02-26T07:44:59;92185.09;;;17.18;29.53
11053;BME280;55230;42.602;23.470;2023-02-26T07:47:29;92149.25;;;17.14;29.06
11053;BME280;55230;42.602;23.470;2023-02-26T07:49:56;92111.72;;;16.63;28.77
11053;BME280;55230;42.602;23.470;2023-02-26T07:52:22;92156.59;;;16.56;28.90
11053;BME280;55230;42.602;23.470;2023-02-26T07:54:49;92153.59;;;16.91;28.48
11053;BME280;55230;42.602;23.470;2023-02-26T07:57:16;92188.44;;;17.11;28.88
11053;BME280;55230;42.602;23.470;2023-02-26T07:59:43;92188.38;;;16.98;28.72
11053;BME280;55230;42.602;23.470;2023-02-26T08:02:10;92131.78;;;16.78;28.71
11053;BME280;55230;42.602;23.470;2023-02-26T08:04:38;92118.38;;;16.80;28.14
11053;BME280;55230;42.602;23.470;2023-02-26T08:07:07;92194.53;;;17.49;28.40
11053;BME280;55230;42.602;23.470;2023-02-26T08:09:33;92056.13;;;17.03;29.59
11053;BME280;55230;42.602;23.470;2023-02-26T08:12:00;92114.06;;;17.29;27.71
11053;BME280;55230;42.602;23.470;2023-02-26T08:14:27;92222.94;;;17.54;28.02
11053;BME280;55230;42.602;23.470;2023-02-26T08:16:54;92116.22;;;16.92;28.06
11053;BME280;55230;42.602;23.470;2023-02-26T08:19:21;92172.03;;;17.30;27.82
11053;BME280;55230;42.602;23.470;2023-02-26T08:21:49;92175.38;;;16.91;27.81
11053;BME280;55230;42.602;23.470;2023-02-26T08:24:16;92128.44;;;16.85;28.76
11053;BME280;55230;42.602;23.470;2023-02-26T08:26:42;92190.13;;;17.27;28.32
11053;BME280;55230;42.602;23.470;2023-02-26T08:29:10;92086.41;;;16.68;28.31
11053;BME280;55230;42.602;23.470;2023-02-26T08:31:37;92193.28;;;17.18;28.64
11053;BME280;55230;42.602;23.470;2023-02-26T08:34:06;92217.47;;;17.54;28.00
11053;BME280;55230;42.602;23.470;2023-02-26T08:36:33;92244.78;;;17.80;28.09
11053;BME280;55230;42.602;23.470;2023-02-26T08:39:02;91969.06;;;15.95;27.75
11053;BME280;55230;42.602;23.470;2023-02-26T08:41:29;92184.16;;;17.87;27.08
11053;BME280;55230;42.602;23.470;2023-02-26T08:43:57;92208.72;;;17.74;27.05
11053;BME280;55230;42.602;23.470;2023-02-26T08:46:24;92189.41;;;17.27;28.36
11053;BME280;55230;42.602;23.470;2023-02-26T08:48:51;92174.28;;;17.13;28.34
11053;BME280;55230;42.602;23.470;2023-02-26T08:51:19;92207.53;;;17.24;28.22
11053;BME280;55230;42.602;23.470;2023-02-26T08:53:46;92166.56;;;16.85;27.59
11053;BME280;55230;42.602;23.470;2023-02-26T08:56:16;91783.59;;;14.38;27.74
11053;BME280;55230;42.602;23.470;2023-02-26T08:58:43;92221.50;;;17.34;27.58
11053;BME280;55230;42.602;23.470;2023-02-26T09:01:10;92158.56;;;17.06;27.86
11053;BME280;55230;42.602;23.470;2023-02-26T09:03:36;92222.53;;;17.50;27.10
11053;BME280;55230;42.602;23.470;2023-02-26T09:06:03;92206.25;;;17.57;27.56
11053;BME280;55230;42.602;23.470;2023-02-26T09:08:30;92180.13;;;17.36;27.62
11053;BME280;55230;42.602;23.470;2023-02-26T09:10:59;92141.78;;;17.47;26.71
11053;BME280;55230;42.602;23.470;2023-02-26T09:13:27;92221.09;;;18.27;27.33
11053;BME280;55230;42.602;23.470;2023-02-26T09:15:54;92208.56;;;18.58;27.10
11053;BME280;55230;42.602;23.470;2023-02-26T09:18:21;92220.00;;;19.03;27.83
11053;BME280;55230;42.602;23.470;2023-02-26T09:20:48;92229.19;;;18.92;26.35
11053;BME280;55230;42.602;23.470;2023-02-26T09:23:15;91750.63;;;15.66;26.07
11053;BME280;55230;42.602;23.470;2023-02-26T09:25:41;92196.53;;;18.40;26.14
11053;BME280;55230;42.602;23.470;2023-02-26T09:28:09;92241.13;;;18.69;25.98
11053;BME280;55230;42.602;23.470;2023-02-26T09:30:38;92131.59;;;18.12;26.94
11053;BME280;55230;42.602;23.470;2023-02-26T09:33:04;92031.09;;;17.30;26.20
11053;BME280;55230;42.602;23.470;2023-02-26T09:35:31;91685.84;;;14.49;26.06
11053;BME280;55230;42.602;23.470;2023-02-26T09:37:58;92223.78;;;18.66;26.76
11053;BME280;55230;42.602;23.470;2023-02-26T09:40:31;92055.78;;;17.85;26.41
11053;BME280;55230;42.602;23.470;2023-02-26T09:43:13;92126.25;;;18.07;26.59
11053;BME280;55230;42.602;23.470;2023-02-26T09:45:47;92088.50;;;17.32;26.84
11053;BME280;55230;42.602;23.470;2023-02-26T09:48:17;91889.84;;;16.04;27.17
11053;BME280;55230;42.602;23.470;2023-02-26T09:50:48;92192.84;;;18.37;25.49
11053;BME280;55230;42.602;23.470;2023-02-26T09:53:18;92095.25;;;17.58;25.62
11053;BME280;55230;42.602;23.470;2023-02-26T09:55:48;91900.59;;;16.67;25.18
11053;BME280;55230;42.602;23.470;2023-02-26T09:58:20;92233.13;;;19.04;24.78
11053;BME280;55230;42.602;23.470;2023-02-26T10:00:55;92180.09;;;19.00;24.13
11053;BME280;55230;42.602;23.470;2023-02-26T10:03:28;92199.97;;;19.41;23.76
11053;BME280;55230;42.602;23.470;2023-02-26T10:06:14;92163.75;;;19.48;23.62
11053;BME280;55230;42.602;23.470;2023-02-26T10:08:50;92201.56;;;20.06;23.02
11053;BME280;55230;42.602;23.470;2023-02-26T10:11:28;92187.91;;;19.86;23.23
11053;BME280;55230;42.602;23.470;2023-02-26T10:14:00;92221.25;;;19.35;23.79
11053;BME280;55230;42.602;23.470;2023-02-26T10:16:33;92169.44;;;19.30;24.47
11053;BME280;55230;42.602;23.470;2023-02-26T10:19:04;92192.47;;;19.34;24.20
11053;BME280;55230;42.602;23.470;2023-02-26T10:21:36;92136.16;;;18.77;24.30
11053;BME280;55230;42.602;23.470;2023-02-26T10:24:11;92197.97;;;18.67;24.85
11053;BME280;55230;42.602;23.470;2023-02-26T10:26:41;92137.31;;;18.48;24.89
11053;BME280;55230;42.602;23.470;2023-02-26T10:29:16;92024.72;;;17.88;24.91
11053;BME280;55230;42.602;23.470;2023-02-26T10:31:57;92090.28;;;18.08;24.74
11053;BME280;55230;42.602;23.470;2023-02-26T10:34:29;91942.97;;;16.76;25.51
11053;BME280;55230;42.602;23.470;2023-02-26T10:37:03;92086.28;;;18.09;25.56
11053;BME280;55230;42.602;23.470;2023-02-26T10:39:38;92077.88;;;18.07;25.90
11053;BME280;55230;42.602;23.470;2023-02-26T10:42:12;92136.94;;;18.18;26.63
11053;BME280;55230;42.602;23.470;2023-02-26T10:44:46;92124.19;;;18.33;26.45
11053;BME280;55230;42.602;23.470;2023-02-26T10:47:21;92123.03;;;18.42;26.04
11053;BME280;55230;42.602;23.470;2023-02-26T10:49:55;91990.56;;;17.87;25.62
11053;BME280;55230;42.602;23.470;2023-02-26T10:52:26;91854.25;;;16.60;25.94
11053;BME280;55230;42.602;23.470;2023-02-26T10:55:14;92134.06;;;18.50;25.82
11053;BME280;55230;42.602;23.470;2023-02-26T10:57:50;92137.09;;;18.33;26.26
11053;BME280;55230;42.602;23.470;2023-02-26T11:00:20;92100.38;;;18.34;26.84
11053;BME280;55230;42.602;23.470;2023-02-26T11:02:52;92094.91;;;18.47;26.52
11053;BME280;55230;42.602;23.470;2023-02-26T11:05:22;92141.78;;;18.59;25.85
11053;BME280;55230;42.602;23.470;2023-02-26T11:07:52;91662.25;;;15.21;26.12
11053;BME280;55230;42.602;23.470;2023-02-26T11:10:22;92136.66;;;18.08;26.65
11053;BME280;55230;42.602;23.470;2023-02-26T11:12:50;92101.09;;;17.75;26.29
11053;BME280;55230;42.602;23.470;2023-02-26T11:15:19;92134.44;;;17.94;26.61
11053;BME280;55230;42.602;23.470;2023-02-26T11:17:48;91966.03;;;16.75;27.50
11053;BME280;55230;42.602;23.470;2023-02-26T11:20:30;92000.28;;;16.83;27.83
11053;BME280;55230;42.602;23.470;2023-02-26T11:23:00;92136.88;;;17.84;27.38
11053;BME280;55230;42.602;23.470;2023-02-26T11:25:30;92140.31;;;17.98;26.72
11053;BME280;55230;42.602;23.470;2023-02-26T11:28:01;92144.31;;;17.97;27.37
11053;BME280;55230;42.602;23.470;2023-02-26T11:30:31;92143.16;;;17.92;27.57
11053;BME280;55230;42.602;23.470;2023-02-26T11:33:05;92149.63;;;18.15;27.03
11053;BME280;55230;42.602;23.470;2023-02-26T11:35:34;92125.63;;;18.01;26.81
11053;BME280;55230;42.602;23.470;2023-02-26T11:38:02;92180.78;;;18.20;27.78
11053;BME280;55230;42.602;23.470;2023-02-26T11:40:34;92153.75;;;17.96;27.20
11053;BME280;55230;42.602;23.470;2023-02-26T11:43:04;92166.34;;;18.12;26.76
11053;BME280;55230;42.602;23.470;2023-02-26T11:45:33;92154.50;;;17.70;26.69
11053;BME280;55230;42.602;23.470;2023-02-26T11:48:04;92162.56;;;17.76;27.02
11053;BME280;55230;42.602;23.470;2023-02-26T11:50:37;92173.25;;;17.87;27.22
11053;BME280;55230;42.602;23.470;2023-02-26T11:53:15;92085.38;;;17.28;27.42
11053;BME280;55230;42.602;23.470;2023-02-26T11:55:44;92046.47;;;17.02;27.20
11053;BME280;55230;42.602;23.470;2023-02-26T11:58:18;91996.56;;;16.55;27.40
11053;BME280;55230;42.602;23.470;2023-02-26T12:00:47;91969.94;;;16.03;28.33
11053;BME280;55230;42.602;23.470;2023-02-26T12:03:17;92013.88;;;16.39;28.89
11053;BME280;55230;42.602;23.470;2023-02-26T12:05:46;92082.72;;;16.65;29.73
11053;BME280;55230;42.602;23.470;2023-02-26T12:08:17;92189.72;;;17.81;28.11
11053;BME280;55230;42.602;23.470;2023-02-26T12:10:58;92200.66;;;17.94;28.46
11053;BME280;55230;42.602;23.470;2023-02-26T12:13:34;92214.28;;;17.94;28.58
11053;BME280;55230;42.602;23.470;2023-02-26T12:16:06;92131.31;;;17.51;28.88
11053;BME280;55230;42.602;23.470;2023-02-26T12:18:49;92217.94;;;18.10;28.88
11053;BME280;55230;42.602;23.470;2023-02-26T12:21:43;91956.63;;;16.31;29.26
11053;BME280;55230;42.602;23.470;2023-02-26T12:24:32;92191.84;;;18.01;29.67
11053;BME280;55230;42.602;23.470;2023-02-26T12:27:10;92183.44;;;17.99;29.50
11053;BME280;55230;42.602;23.470;2023-02-26T12:29:53;91959.09;;;16.48;28.59
11053;BME280;55230;42.602;23.470;2023-02-26T12:32:39;92177.03;;;17.97;28.55
11053;BME280;55230;42.602;23.470;2023-02-26T12:35:24;92237.22;;;18.38;28.11
11053;BME280;55230;42.602;23.470;2023-02-26T12:38:07;92232.31;;;18.50;28.92
11053;BME280;55230;42.602;23.470;2023-02-26T12:40:48;92215.84;;;18.29;29.70
11053;BME280;55230;42.602;23.470;2023-02-26T12:43:24;92251.22;;;18.21;31.34
11053;BME280;55230;42.602;23.470;2023-02-26T12:46:01;92177.88;;;17.92;31.35
11053;BME280;55230;42.602;23.470;2023-02-26T12:49:00;92118.13;;;17.55;32.28
11053;BME280;55230;42.602;23.470;2023-02-26T12:51:46;92178.50;;;17.98;32.09
11053;BME280;55230;42.602;23.470;2023-02-26T12:54:33;92251.31;;;18.16;32.19
11053;BME280;55230;42.602;23.470;2023-02-26T12:57:20;92259.25;;;17.75;33.76
11053;BME280;55230;42.602;23.470;2023-02-26T13:00:03;92294.31;;;17.84;33.48
11053;BME280;55230;42.602;23.470;2023-02-26T13:03:11;92244.38;;;17.89;34.04
11053;BME280;55230;42.602;23.470;2023-02-26T13:05:52;92248.59;;;18.03;33.88
11053;BME280;55230;42.602;23.470;2023-02-26T13:08:27;92247.22;;;17.96;34.26
11053;BME280;55230;42.602;23.470;2023-02-26T13:11:09;92261.16;;;17.80;34.36
11053;BME280;55230;42.602;23.470;2023-02-26T13:13:52;92200.28;;;17.59;34.65
11053;BME280;55230;42.602;23.470;2023-02-26T13:16:33;92252.34;;;17.87;34.77
11053;BME280;55230;42.602;23.470;2023-02-26T13:19:09;92193.13;;;17.43;34.68